Time;durP1;ratioP1;P1;durP2;ratioP2;P2;SDS_P1;SDS_P2;PMS_P1;PMS_P2;Temp;Humidity;BMP_temperature;BMP_pressure;BME280_temperature;BME280_humidity;BME280_pressure;Samples;Min_cycle;Max_cycle;Signal;HPM_P1;HPM_P2
2023/04/08 00:00:33;;;;;;;15.95;12.43;;;8.90;99.90;;;;;;5109295;28;20230;-77
2023/04/08 00:03:02;;;;;;;12.15;10.85;;;8.90;99.90;;;;;;5112720;28;20253;-76
2023/04/08 00:05:34;;;;;;;13.32;11.05;;;8.90;99.90;;;;;;5081602;28;20226;-77
2023/04/08 00:08:01;;;;;;;14.75;10.35;;;8.90;99.90;;;;;;5086794;28;20232;-77
2023/04/08 00:10:28;;;;;;;14.98;12.05;;;8.80;99.90;;;;;;5073562;28;20294;-77
2023/04/08 00:12:55;;;;;;;13.15;10.75;;;8.80;99.90;;;;;;5089228;28;20223;-76
2023/04/08 00:15:23;;;;;;;14.27;12.30;;;8.90;99.90;;;;;;5094642;28;20232;-77
2023/04/08 00:17:59;;;;;;;14.18;11.80;;;8.90;99.90;;;;;;5093726;28;20219;-77
2023/04/08 00:20:27;;;;;;;14.13;12.52;;;8.90;99.90;;;;;;5094770;28;20219;-76
2023/04/08 00:22:55;;;;;;;15.50;12.77;;;8.90;99.90;;;;;;5093105;28;20216;-76
2023/04/08 00:25:22;;;;;;;13.82;12.40;;;8.90;99.90;;;;;;5084250;28;20227;-77
2023/04/08 00:27:50;;;;;;;14.82;12.27;;;8.90;99.90;;;;;;5093978;28;20227;-76
2023/04/08 00:30:17;;;;;;;15.23;12.93;;;8.90;99.90;;;;;;5094025;28;20226;-77
2023/04/08 00:32:44;;;;;;;17.85;13.48;;;9.00;99.90;;;;;;5093609;28;20257;-76
2023/04/08 00:35:14;;;;;;;17.55;13.38;;;8.90;99.90;;;;;;5094211;28;20235;-77
2023/04/08 00:37:41;;;;;;;18.60;14.13;;;8.90;99.90;;;;;;5092946;28;20219;-77
2023/04/08 00:40:11;;;;;;;19.75;14.95;;;9.00;99.90;;;;;;5094075;28;20231;-77
2023/04/08 00:42:39;;;;;;;23.38;14.80;;;8.90;99.90;;;;;;5098881;28;20285;-77
2023/04/08 00:45:07;;;;;;;15.10;13.50;;;8.90;99.90;;;;;;5098162;28;20232;-77
2023/04/08 00:47:36;;;;;;;19.13;15.15;;;8.90;99.90;;;;;;5092449;28;20227;-77
2023/04/08 00:50:04;;;;;;;20.90;16.52;;;8.90;99.90;;;;;;5086082;28;20220;-77
2023/04/08 00:52:31;;;;;;;20.35;15.65;;;8.90;99.90;;;;;;5074558;28;20227;-77
2023/04/08 00:55:00;;;;;;;20.08;15.57;;;8.90;99.90;;;;;;5098825;28;20252;-77
2023/04/08 00:57:30;;;;;;;20.00;16.05;;;8.90;99.90;;;;;;5103889;28;20291;-76
2023/04/08 00:59:57;;;;;;;21.98;15.25;;;8.90;99.90;;;;;;5117477;28;20238;-77
2023/04/08 01:02:33;;;;;;;21.77;15.85;;;8.90;99.90;;;;;;5119626;28;20218;-77
2023/04/08 01:05:05;;;;;;;22.85;17.52;;;8.90;99.90;;;;;;5095064;28;20235;-77
2023/04/08 01:07:35;;;;;;;21.88;16.65;;;8.80;99.90;;;;;;5074242;28;20235;-78
2023/04/08 01:10:08;;;;;;;22.60;16.02;;;8.80;99.90;;;;;;5074315;28;20227;-77
2023/04/08 01:12:44;;;;;;;24.42;17.08;;;8.80;99.90;;;;;;5086258;28;20231;-77
2023/04/08 01:15:12;;;;;;;22.52;16.17;;;8.80;99.90;;;;;;5093022;28;20219;-76
2023/04/08 01:17:45;;;;;;;26.00;17.17;;;8.90;99.90;;;;;;5093334;28;20231;-78
2023/04/08 01:20:15;;;;;;;23.25;16.50;;;8.90;99.90;;;;;;5071430;28;20216;-78
2023/04/08 01:22:54;;;;;;;24.60;17.17;;;8.80;99.90;;;;;;5073527;28;20216;-76
2023/04/08 01:25:27;;;;;;;21.85;15.52;;;8.80;99.90;;;;;;5072642;28;20562;-76
2023/04/08 01:27:58;;;;;;;22.73;17.20;;;8.90;99.90;;;;;;5061813;28;20262;-77
2023/04/08 01:30:27;;;;;;;22.67;16.92;;;8.80;99.90;;;;;;5071310;28;20224;-76
2023/04/08 01:32:55;;;;;;;21.00;16.92;;;8.80;99.90;;;;;;5072516;28;20293;-76
2023/04/08 01:35:25;;;;;;;28.35;18.75;;;8.80;99.90;;;;;;5072673;28;20303;-76
2023/04/08 01:37:56;;;;;;;23.73;17.40;;;8.80;99.90;;;;;;5073707;28;20668;-77
2023/04/08 01:40:24;;;;;;;25.13;17.25;;;8.80;99.90;;;;;;5086943;28;20530;-76
2023/04/08 01:42:54;;;;;;;24.95;17.75;;;8.80;99.90;;;;;;5092409;28;20322;-77
2023/04/08 01:45:24;;;;;;;24.60;18.85;;;8.90;99.90;;;;;;5091172;28;20285;-76
2023/04/08 01:47:52;;;;;;;25.95;19.33;;;8.90;99.90;;;;;;5094356;28;20621;-76
2023/04/08 01:50:22;;;;;;;28.88;19.27;;;8.80;99.90;;;;;;5095436;28;20305;-76
2023/04/08 01:52:52;;;;;;;26.23;17.70;;;8.80;99.90;;;;;;5095672;28;20230;-75
2023/04/08 01:55:20;;;;;;;24.58;18.50;;;8.80;99.90;;;;;;5110478;28;20686;-76
2023/04/08 01:57:52;;;;;;;28.25;18.80;;;8.80;99.90;;;;;;5115302;28;20230;-77
2023/04/08 02:00:24;;;;;;;25.85;19.42;;;8.80;99.90;;;;;;5105415;28;20218;-76
2023/04/08 02:02:52;;;;;;;24.67;18.55;;;8.80;99.90;;;;;;5117462;28;20348;-77
2023/04/08 02:05:20;;;;;;;27.15;18.05;;;8.80;99.90;;;;;;5119593;28;20223;-77
2023/04/08 02:07:47;;;;;;;25.23;17.95;;;8.90;99.90;;;;;;5097150;28;20242;-76
2023/04/08 02:10:15;;;;;;;27.50;18.38;;;8.90;99.90;;;;;;5096589;28;20284;-77
2023/04/08 02:12:45;;;;;;;22.92;18.23;;;8.90;99.90;;;;;;5094962;28;20563;-77
2023/04/08 02:15:14;;;;;;;29.25;18.98;;;8.90;99.90;;;;;;5096155;28;20246;-77
2023/04/08 02:17:45;;;;;;;25.77;18.13;;;8.90;99.90;;;;;;5095787;28;20608;-77
2023/04/08 02:20:22;;;;;;;24.77;17.88;;;8.90;99.90;;;;;;5074984;28;20236;-76
2023/04/08 02:23:03;;;;;;;24.17;17.23;;;8.90;99.90;;;;;;5081076;28;20228;-77
2023/04/08 02:25:34;;;;;;;24.77;17.98;;;8.90;99.90;;;;;;5096022;28;20223;-76
2023/04/08 02:28:04;;;;;;;23.08;16.70;;;8.90;99.90;;;;;;5080045;28;20310;-76
2023/04/08 02:30:32;;;;;;;25.55;16.67;;;8.90;99.90;;;;;;5075190;28;20565;-77
2023/04/08 02:33:06;;;;;;;25.13;17.67;;;8.90;99.90;;;;;;5073963;28;20621;-77
2023/04/08 02:35:34;;;;;;;26.95;17.33;;;8.90;99.90;;;;;;5076146;28;20622;-77
2023/04/08 02:38:04;;;;;;;24.35;19.48;;;8.90;99.90;;;;;;5074227;28;20220;-77
2023/04/08 02:40:34;;;;;;;29.02;18.52;;;8.90;99.90;;;;;;5075269;28;20699;-77
2023/04/08 02:43:01;;;;;;;29.35;19.42;;;9.00;99.90;;;;;;5073424;28;20222;-78
2023/04/08 02:45:35;;;;;;;26.73;19.33;;;9.00;99.90;;;;;;5081902;28;20227;-77
2023/04/08 02:48:04;;;;;;;29.10;19.98;;;8.90;99.90;;;;;;5094149;28;20326;-77
2023/04/08 02:50:32;;;;;;;28.23;19.35;;;9.00;99.90;;;;;;5094547;28;20242;-77
2023/04/08 02:52:59;;;;;;;25.08;15.90;;;8.90;99.90;;;;;;5094134;28;20318;-77
2023/04/08 02:55:27;;;;;;;31.77;19.95;;;8.90;99.90;;;;;;5110885;28;20225;-77
2023/04/08 02:57:54;;;;;;;25.75;19.88;;;8.90;99.90;;;;;;5099281;28;20229;-77
2023/04/08 03:00:22;;;;;;;27.92;17.63;;;8.90;99.90;;;;;;5082870;28;20312;-77
2023/04/08 03:02:49;;;;;;;25.45;18.25;;;8.90;99.90;;;;;;5094129;28;20306;-78
2023/04/08 03:05:18;;;;;;;26.67;18.13;;;8.90;99.90;;;;;;5093954;28;20323;-78
2023/04/08 03:07:45;;;;;;;24.95;19.02;;;8.90;99.90;;;;;;5075625;28;20216;-78
2023/04/08 03:10:12;;;;;;;26.50;18.17;;;9.00;99.90;;;;;;5073635;28;20232;-77
2023/04/08 03:12:39;;;;;;;26.27;17.73;;;9.00;99.90;;;;;;5086483;28;20608;-77
2023/04/08 03:15:08;;;;;;;27.23;17.98;;;9.00;99.90;;;;;;5093377;28;20231;-77
2023/04/08 03:17:35;;;;;;;25.38;18.08;;;9.00;99.90;;;;;;5093835;28;20235;-77
2023/04/08 03:20:05;;;;;;;28.00;16.77;;;9.00;99.90;;;;;;5093550;28;20562;-75
2023/04/08 03:22:34;;;;;;;24.15;17.90;;;9.00;99.90;;;;;;5094017;28;20215;-77
2023/04/08 03:25:01;;;;;;;28.80;18.55;;;9.00;99.90;;;;;;5093159;28;20239;-77
2023/04/08 03:27:29;;;;;;;24.40;18.60;;;9.00;99.90;;;;;;5092343;28;20224;-77
2023/04/08 03:29:58;;;;;;;27.92;20.15;;;8.90;99.90;;;;;;5091633;28;20215;-77
2023/04/08 03:32:25;;;;;;;25.33;17.23;;;9.00;99.90;;;;;;5093392;28;20277;-77
2023/04/08 03:34:52;;;;;;;27.55;19.33;;;9.00;99.90;;;;;;5093436;28;20237;-76
2023/04/08 03:37:19;;;;;;;26.27;19.25;;;9.00;99.90;;;;;;5093109;28;20365;-77
2023/04/08 03:39:51;;;;;;;30.20;19.48;;;9.00;99.90;;;;;;5093655;28;20219;-77
2023/04/08 03:42:18;;;;;;;25.23;19.90;;;9.00;99.90;;;;;;5091764;28;20216;-76
2023/04/08 03:44:47;;;;;;;35.40;20.65;;;9.00;99.90;;;;;;5091450;28;20327;-76
2023/04/08 03:47:14;;;;;;;29.85;20.05;;;8.90;99.90;;;;;;5092650;28;20239;-76
2023/04/08 03:49:43;;;;;;;30.63;18.55;;;9.00;99.90;;;;;;5091380;28;20223;-78
2023/04/08 03:52:13;;;;;;;30.15;17.55;;;9.00;99.90;;;;;;5091411;28;20310;-77
2023/04/08 03:54:41;;;;;;;34.90;21.52;;;9.00;99.90;;;;;;5091563;28;20281;-77
2023/04/08 03:57:10;;;;;;;30.50;19.70;;;9.00;99.90;;;;;;5092302;28;20736;-77
2023/04/08 03:59:38;;;;;;;30.75;20.95;;;9.00;99.90;;;;;;5093189;28;20227;-77
2023/04/08 04:02:05;;;;;;;32.67;19.80;;;9.00;99.90;;;;;;5092400;28;20260;-76
2023/04/08 04:04:35;;;;;;;28.25;20.27;;;9.00;99.90;;;;;;5093349;28;20508;-77
2023/04/08 04:07:09;;;;;;;27.60;20.88;;;9.00;99.90;;;;;;5092650;28;20219;-77
2023/04/08 04:09:36;;;;;;;29.38;19.38;;;9.10;99.90;;;;;;5092109;28;20249;-77
2023/04/08 04:12:03;;;;;;;27.08;18.10;;;9.10;99.90;;;;;;5086162;28;20228;-77
2023/04/08 04:14:32;;;;;;;28.15;20.90;;;9.10;99.90;;;;;;5066824;28;20223;-77
2023/04/08 04:16:59;;;;;;;31.02;21.52;;;9.10;99.90;;;;;;5080882;28;20228;-76
2023/04/08 04:19:30;;;;;;;32.60;21.73;;;9.10;99.90;;;;;;5076050;28;20263;-77
2023/04/08 04:22:00;;;;;;;28.92;19.83;;;9.00;99.90;;;;;;5074384;28;20234;-76
2023/04/08 04:24:27;;;;;;;30.58;20.65;;;9.00;99.90;;;;;;5073096;28;20226;-77
2023/04/08 04:26:55;;;;;;;29.65;21.30;;;9.10;99.90;;;;;;5072763;28;20231;-76
2023/04/08 04:29:22;;;;;;;27.75;18.98;;;9.00;99.90;;;;;;5072324;28;20228;-76
2023/04/08 04:31:50;;;;;;;28.30;21.08;;;9.10;99.90;;;;;;5072493;28;20227;-77
2023/04/08 04:34:17;;;;;;;34.25;22.02;;;9.10;99.90;;;;;;5072737;28;20246;-76
2023/04/08 04:36:44;;;;;;;28.95;20.05;;;9.10;99.90;;;;;;5073737;28;20235;-78
2023/04/08 04:39:11;;;;;;;29.15;20.35;;;9.10;99.90;;;;;;5072739;28;20223;-77
2023/04/08 04:41:40;;;;;;;27.92;20.05;;;9.10;99.90;;;;;;5072616;28;20231;-77
2023/04/08 04:44:07;;;;;;;26.42;19.58;;;9.10;99.90;;;;;;5073107;28;20255;-78
2023/04/08 04:46:34;;;;;;;26.75;17.75;;;9.10;99.90;;;;;;5089910;28;20312;-77
2023/04/08 04:49:03;;;;;;;26.00;19.52;;;9.10;99.90;;;;;;5092878;28;20238;-78
2023/04/08 04:51:31;;;;;;;28.92;19.98;;;9.20;99.90;;;;;;5092355;28;20230;-77
2023/04/08 04:53:59;;;;;;;26.83;19.60;;;9.20;99.90;;;;;;5092558;28;20650;-77
2023/04/08 04:56:26;;;;;;;30.20;19.88;;;9.10;99.90;;;;;;5091316;28;20303;-77
2023/04/08 04:58:53;;;;;;;28.58;19.77;;;9.20;99.90;;;;;;5092588;28;20276;-77
2023/04/08 05:01:21;;;;;;;28.42;20.80;;;9.20;99.90;;;;;;5091560;28;20249;-77
2023/04/08 05:03:47;;;;;;;29.88;22.13;;;9.20;99.90;;;;;;5092456;28;20234;-77
2023/04/08 05:06:16;;;;;;;29.00;20.83;;;9.20;99.90;;;;;;5091985;28;20231;-77
2023/04/08 05:08:43;;;;;;;28.15;21.10;;;9.20;99.90;;;;;;5092814;28;20223;-77
2023/04/08 05:11:11;;;;;;;29.30;20.52;;;9.20;99.90;;;;;;5080899;28;20231;-77
2023/04/08 05:13:40;;;;;;;24.88;19.10;;;9.20;99.90;;;;;;5099944;28;20315;-76
2023/04/08 05:16:08;;;;;;;30.00;20.35;;;9.20;99.90;;;;;;5092596;28;20349;-76
2023/04/08 05:18:35;;;;;;;30.98;21.60;;;9.20;99.90;;;;;;5091742;28;20303;-76
2023/04/08 05:21:04;;;;;;;22.08;17.13;;;9.10;99.90;;;;;;5092580;28;20227;-77
2023/04/08 05:23:32;;;;;;;31.88;22.70;;;9.20;99.90;;;;;;5094911;28;20243;-77
2023/04/08 05:25:59;;;;;;;33.13;23.30;;;9.20;99.90;;;;;;5096862;28;20227;-77
2023/04/08 05:28:26;;;;;;;29.92;22.15;;;9.20;99.90;;;;;;5095342;28;20222;-76
2023/04/08 05:30:54;;;;;;;30.83;21.08;;;9.10;99.90;;;;;;5096356;28;20261;-76
2023/04/08 05:33:22;;;;;;;30.35;20.08;;;9.10;99.90;;;;;;5095919;28;20223;-77
2023/04/08 05:35:50;;;;;;;28.17;19.95;;;9.10;99.90;;;;;;5095361;28;20572;-77
2023/04/08 05:38:17;;;;;;;33.55;21.65;;;9.20;99.90;;;;;;5096075;28;20246;-78
2023/04/08 05:40:45;;;;;;;27.98;21.38;;;9.20;99.90;;;;;;5094891;28;20229;-76
2023/04/08 05:43:13;;;;;;;35.67;22.98;;;9.20;99.90;;;;;;5095425;28;20695;-77
2023/04/08 05:45:42;;;;;;;30.90;20.42;;;9.20;99.90;;;;;;5093224;28;20261;-77
2023/04/08 05:48:09;;;;;;;29.23;19.67;;;9.20;99.90;;;;;;5095667;28;20219;-77
2023/04/08 05:50:37;;;;;;;29.83;21.27;;;9.30;99.90;;;;;;5095363;28;20231;-77
2023/04/08 05:53:04;;;;;;;31.08;22.02;;;9.30;99.90;;;;;;5095395;28;20223;-76
2023/04/08 05:55:31;;;;;;;35.20;24.48;;;9.30;99.90;;;;;;5095145;28;20235;-77
2023/04/08 05:57:59;;;;;;;34.28;23.52;;;9.30;99.90;;;;;;5095217;28;20223;-76
2023/04/08 06:00:26;;;;;;;33.05;22.15;;;9.30;99.90;;;;;;5096206;28;20230;-77
2023/04/08 06:02:54;;;;;;;28.17;21.52;;;9.40;99.90;;;;;;5095594;28;20570;-77
2023/04/08 06:05:21;;;;;;;33.97;22.67;;;9.40;99.90;;;;;;5095008;28;20253;-78
2023/04/08 06:07:48;;;;;;;29.00;20.90;;;9.40;99.90;;;;;;5093710;28;20223;-77
2023/04/08 06:10:16;;;;;;;31.38;21.50;;;9.40;99.90;;;;;;5095684;28;20387;-77
2023/04/08 06:12:43;;;;;;;33.42;22.70;;;9.40;99.90;;;;;;5081394;28;20241;-77
2023/04/08 06:15:11;;;;;;;37.47;23.23;;;9.40;99.90;;;;;;5075513;28;20562;-77
2023/04/08 06:17:39;;;;;;;35.65;23.20;;;9.40;99.90;;;;;;5074780;28;20614;-77
2023/04/08 06:20:08;;;;;;;31.98;21.95;;;9.50;99.90;;;;;;5075022;28;20233;-77
2023/04/08 06:22:35;;;;;;;35.75;23.85;;;9.40;99.90;;;;;;5073659;28;20231;-77
2023/04/08 06:25:02;;;;;;;35.92;23.75;;;9.50;99.90;;;;;;5074754;28;20294;-77
2023/04/08 06:27:29;;;;;;;34.22;22.95;;;9.50;99.90;;;;;;5074978;28;20232;-77
2023/04/08 06:29:57;;;;;;;32.47;22.95;;;9.50;99.90;;;;;;5073820;28;20226;-76
2023/04/08 06:32:25;;;;;;;36.92;23.00;;;9.50;99.90;;;;;;5074424;28;20521;-77
2023/04/08 06:34:52;;;;;;;35.55;23.92;;;9.50;99.90;;;;;;5073462;28;20289;-77
2023/04/08 06:37:19;;;;;;;36.17;24.30;;;9.60;99.90;;;;;;5089562;28;20239;-77
2023/04/08 06:39:46;;;;;;;36.33;23.25;;;9.60;99.90;;;;;;5093961;28;20726;-77
2023/04/08 06:42:14;;;;;;;37.00;24.80;;;9.70;99.90;;;;;;5094732;28;20633;-77
2023/04/08 06:44:41;;;;;;;38.00;24.45;;;9.70;99.90;;;;;;5092634;28;20223;-77
2023/04/08 06:47:08;;;;;;;36.50;24.15;;;9.70;99.90;;;;;;5093720;28;20515;-77
2023/04/08 06:49:37;;;;;;;34.53;23.27;;;9.70;99.90;;;;;;5093873;28;20234;-77
2023/04/08 06:52:05;;;;;;;33.40;23.67;;;9.70;99.90;;;;;;5094346;28;20224;-77
2023/04/08 06:54:32;;;;;;;37.00;24.27;;;9.80;99.90;;;;;;5093618;28;20230;-77
2023/04/08 06:57:00;;;;;;;32.03;23.45;;;9.80;99.90;;;;;;5094200;28;20224;-77
2023/04/08 06:59:27;;;;;;;33.88;22.90;;;9.80;99.90;;;;;;5094208;28;20223;-77
2023/04/08 07:01:53;;;;;;;37.55;23.30;;;9.80;99.90;;;;;;5093902;28;20220;-77
2023/04/08 07:04:21;;;;;;;37.90;25.38;;;9.90;99.90;;;;;;5094054;28;20289;-76
2023/04/08 07:06:50;;;;;;;40.63;26.33;;;9.90;99.90;;;;;;5092854;28;20712;-76
2023/04/08 07:09:18;;;;;;;33.92;25.02;;;9.90;99.90;;;;;;5092764;28;20593;-77
2023/04/08 07:11:45;;;;;;;36.13;23.00;;;9.90;99.90;;;;;;5088066;28;20285;-77
2023/04/08 07:14:13;;;;;;;36.35;25.30;;;9.90;99.90;;;;;;5089998;28;20292;-76
2023/04/08 07:16:40;;;;;;;33.03;22.70;;;9.90;99.90;;;;;;5093694;28;20652;-78
2023/04/08 07:19:07;;;;;;;41.03;24.55;;;9.90;99.90;;;;;;5094414;28;20231;-77
2023/04/08 07:21:34;;;;;;;37.53;25.50;;;9.90;99.90;;;;;;5093939;28;20219;-77
2023/04/08 07:24:03;;;;;;;35.67;23.92;;;9.90;99.90;;;;;;5093515;28;20629;-76
2023/04/08 07:26:30;;;;;;;33.25;22.88;;;9.90;99.90;;;;;;5093660;28;20248;-77
2023/04/08 07:28:57;;;;;;;34.53;22.58;;;9.90;99.90;;;;;;5093385;28;20223;-77
2023/04/08 07:31:24;;;;;;;35.85;22.95;;;10.00;99.90;;;;;;5093639;28;20272;-76
2023/04/08 07:33:51;;;;;;;31.08;21.95;;;10.10;99.90;;;;;;5092434;28;20288;-77
2023/04/08 07:36:24;;;;;;;42.78;26.58;;;10.10;99.90;;;;;;5093380;28;20251;-77
2023/04/08 07:38:59;;;;;;;38.10;25.50;;;10.20;99.90;;;;;;5092096;28;20219;-76
2023/04/08 07:41:28;;;;;;;35.33;24.13;;;10.20;99.90;;;;;;5087396;28;20223;-77
2023/04/08 07:44:00;;;;;;;37.30;25.83;;;10.30;99.90;;;;;;5093149;28;20234;-76
2023/04/08 07:46:27;;;;;;;35.38;24.85;;;10.30;99.90;;;;;;5092590;28;20227;-76
2023/04/08 07:48:54;;;;;;;39.47;24.85;;;10.40;99.90;;;;;;5092127;28;20250;-77
2023/04/08 07:51:22;;;;;;;36.92;23.98;;;10.40;99.90;;;;;;5093229;28;20227;-76
2023/04/08 07:53:48;;;;;;;41.50;24.70;;;10.40;99.90;;;;;;5092904;28;20237;-77
2023/04/08 07:56:17;;;;;;;31.48;22.83;;;10.40;99.90;;;;;;5092933;28;20553;-77
2023/04/08 07:58:49;;;;;;;33.88;23.33;;;10.50;99.90;;;;;;5092846;28;20269;-77
2023/04/08 08:01:23;;;;;;;33.28;23.73;;;10.40;99.90;;;;;;5093250;28;20697;-77
2023/04/08 08:03:51;;;;;;;35.17;24.58;;;10.40;99.90;;;;;;5093091;28;20219;-77
2023/04/08 08:06:18;;;;;;;35.00;22.00;;;10.50;99.90;;;;;;5093030;28;20296;-78
2023/04/08 08:08:45;;;;;;;32.72;22.27;;;10.50;99.90;;;;;;5093196;28;20556;-77
2023/04/08 08:11:12;;;;;;;34.85;25.98;;;10.60;99.90;;;;;;5091469;28;20235;-77
2023/04/08 08:13:41;;;;;;;34.70;24.85;;;10.70;99.90;;;;;;5083978;28;20223;-78
2023/04/08 08:16:10;;;;;;;34.17;22.83;;;10.70;99.90;;;;;;5091688;28;20314;-78
2023/04/08 08:18:38;;;;;;;41.00;25.85;;;10.70;99.90;;;;;;5092754;28;20633;-77
2023/04/08 08:21:06;;;;;;;36.35;24.45;;;10.80;99.90;;;;;;5082008;28;20222;-77
2023/04/08 08:23:34;;;;;;;39.83;25.98;;;10.80;99.90;;;;;;5093398;28;20335;-77
2023/04/08 08:26:01;;;;;;;34.80;24.65;;;10.80;99.90;;;;;;5091279;28;20242;-76
2023/04/08 08:28:28;;;;;;;31.52;22.40;;;11.00;99.90;;;;;;5092931;28;20238;-77
2023/04/08 08:30:57;;;;;;;32.13;22.60;;;11.00;99.90;;;;;;5092841;28;20229;-77
2023/04/08 08:33:26;;;;;;;33.95;24.00;;;11.00;99.90;;;;;;5093930;28;20288;-76
2023/04/08 08:35:54;;;;;;;34.80;23.88;;;11.00;99.90;;;;;;5092108;28;20718;-76
2023/04/08 08:38:21;;;;;;;36.40;24.52;;;11.00;99.90;;;;;;5087705;28;20242;-76
2023/04/08 08:40:55;;;;;;;29.38;22.20;;;11.10;99.90;;;;;;5089625;28;20538;-76
2023/04/08 08:43:22;;;;;;;33.03;22.90;;;11.20;99.90;;;;;;5091778;28;20571;-76
2023/04/08 08:45:50;;;;;;;33.28;23.23;;;11.20;99.90;;;;;;5092775;28;20569;-76
2023/04/08 08:48:18;;;;;;;41.00;24.90;;;11.30;99.90;;;;;;5091613;28;20215;-77
2023/04/08 08:50:47;;;;;;;33.47;21.80;;;11.30;99.90;;;;;;5092037;28;20663;-77
2023/04/08 08:53:14;;;;;;;30.17;22.00;;;11.30;99.90;;;;;;5091685;28;20239;-77
2023/04/08 08:55:41;;;;;;;31.10;22.23;;;11.40;99.90;;;;;;5092156;28;20227;-76
2023/04/08 08:58:09;;;;;;;32.72;22.95;;;11.40;99.90;;;;;;5094141;28;20885;-76
2023/04/08 09:00:38;;;;;;;29.33;22.88;;;11.40;99.90;;;;;;5097107;28;20690;-76
2023/04/08 09:03:17;;;;;;;32.42;23.50;;;11.50;99.90;;;;;;5079035;28;20284;-77
2023/04/08 09:05:56;;;;;;;33.10;24.67;;;11.50;99.90;;;;;;5096423;28;20538;-76
2023/04/08 09:08:28;;;;;;;33.88;23.30;;;11.50;99.90;;;;;;5097079;28;20328;-77
2023/04/08 09:10:57;;;;;;;31.98;22.80;;;11.40;99.90;;;;;;5083260;28;20269;-76
2023/04/08 09:13:26;;;;;;;34.63;22.73;;;11.40;99.90;;;;;;5102182;28;20223;-77
2023/04/08 09:16:06;;;;;;;28.02;21.77;;;11.40;99.90;;;;;;5104047;28;20235;-77
2023/04/08 09:18:33;;;;;;;32.53;21.95;;;11.50;99.90;;;;;;5097343;28;20310;-76
2023/04/08 09:21:05;;;;;;;32.58;23.83;;;11.50;99.90;;;;;;5095995;28;20222;-76
2023/04/08 09:23:44;;;;;;;33.20;23.42;;;11.40;99.90;;;;;;5096209;28;20720;-76
2023/04/08 09:26:13;;;;;;;29.83;23.08;;;11.40;99.90;;;;;;5095351;28;20231;-76
2023/04/08 09:28:45;;;;;;;39.58;22.38;;;11.40;99.90;;;;;;5096414;28;20231;-77
2023/04/08 09:31:20;;;;;;;32.63;23.77;;;11.40;99.90;;;;;;5095813;28;20219;-76
2023/04/08 09:33:48;;;;;;;36.58;24.70;;;11.40;99.90;;;;;;5095322;28;20242;-77
2023/04/08 09:36:17;;;;;;;33.95;22.95;;;11.50;99.90;;;;;;5095107;28;20223;-77
2023/04/08 09:38:45;;;;;;;31.35;22.38;;;11.50;99.90;;;;;;5095731;28;20242;-76
2023/04/08 09:41:15;;;;;;;31.60;20.67;;;11.50;99.90;;;;;;5094386;28;20246;-77
2023/04/08 09:43:47;;;;;;;29.25;22.45;;;11.50;99.90;;;;;;5094895;28;20581;-76
2023/04/08 09:46:17;;;;;;;35.42;23.75;;;11.50;99.90;;;;;;5095415;28;20295;-77
2023/04/08 09:48:51;;;;;;;33.60;22.20;;;11.60;99.90;;;;;;5095754;28;20250;-77
2023/04/08 09:51:24;;;;;;;33.83;23.98;;;11.60;99.90;;;;;;5095173;28;20226;-77
2023/04/08 09:53:59;;;;;;;27.90;22.38;;;11.50;99.90;;;;;;5096002;28;20235;-76
2023/04/08 09:56:31;;;;;;;34.05;23.35;;;11.60;99.90;;;;;;5094957;28;20273;-77
2023/04/08 09:59:02;;;;;;;29.38;22.10;;;11.60;99.90;;;;;;5095772;28;20234;-77
2023/04/08 10:01:37;;;;;;;32.78;23.55;;;11.60;99.90;;;;;;5095272;28;20273;-77
2023/04/08 10:04:09;;;;;;;28.50;22.23;;;11.60;99.90;;;;;;5094041;28;20306;-77
2023/04/08 10:06:39;;;;;;;28.15;22.50;;;11.60;99.90;;;;;;5094252;28;20234;-77
2023/04/08 10:09:07;;;;;;;33.45;23.02;;;11.60;99.90;;;;;;5094774;28;20227;-76
2023/04/08 10:11:35;;;;;;;32.38;22.63;;;11.60;99.90;;;;;;5094323;28;20227;-76
2023/04/08 10:14:02;;;;;;;35.65;23.75;;;11.60;99.90;;;;;;5094737;28;20219;-76
2023/04/08 10:16:30;;;;;;;30.05;22.90;;;11.50;99.90;;;;;;5094733;28;20623;-76
2023/04/08 10:18:57;;;;;;;31.83;22.70;;;11.50;99.90;;;;;;5094866;28;20234;-76
2023/04/08 10:21:41;;;;;;;31.33;23.80;;;11.50;99.90;;;;;;5093665;28;20223;-76
2023/04/08 10:24:11;;;;;;;28.77;22.15;;;11.60;99.90;;;;;;5095033;28;20341;-77
2023/04/08 10:26:40;;;;;;;29.23;21.40;;;11.70;99.90;;;;;;5083779;28;20536;-77
2023/04/08 10:29:32;;;;;;;29.08;22.10;;;11.80;99.90;;;;;;5094089;28;20225;-77
2023/04/08 10:32:00;;;;;;;27.98;22.10;;;11.90;99.90;;;;;;5094157;28;20234;-76
2023/04/08 10:34:27;;;;;;;31.17;22.63;;;12.00;99.90;;;;;;5094426;28;20231;-77
2023/04/08 10:36:57;;;;;;;27.65;21.85;;;12.10;99.90;;;;;;5094910;28;20253;-76
2023/04/08 10:39:27;;;;;;;29.45;21.23;;;12.20;99.90;;;;;;5093622;28;20227;-76
2023/04/08 10:41:54;;;;;;;31.38;21.05;;;12.20;99.90;;;;;;5094270;28;20231;-77
2023/04/08 10:44:25;;;;;;;26.92;20.92;;;12.30;99.90;;;;;;5093913;28;20223;-77
2023/04/08 10:46:54;;;;;;;31.88;21.17;;;12.40;99.90;;;;;;5094103;28;20219;-76
2023/04/08 10:49:22;;;;;;;25.63;19.42;;;12.40;99.90;;;;;;5093793;28;20223;-77
2023/04/08 10:51:50;;;;;;;25.73;20.40;;;12.50;99.90;;;;;;5094691;28;20302;-76
2023/04/08 10:54:18;;;;;;;20.67;18.48;;;12.50;99.90;;;;;;5093332;28;20223;-76
2023/04/08 10:56:51;;;;;;;24.73;18.48;;;12.60;99.90;;;;;;5094512;28;20227;-77
2023/04/08 10:59:27;;;;;;;27.33;19.98;;;12.60;99.90;;;;;;5093730;28;20231;-77
2023/04/08 11:01:55;;;;;;;26.15;17.52;;;12.60;99.90;;;;;;5094132;28;20306;-77
2023/04/08 11:04:23;;;;;;;23.42;17.60;;;12.70;99.90;;;;;;5093171;28;20243;-77
2023/04/08 11:06:51;;;;;;;22.23;18.98;;;12.80;99.90;;;;;;5094541;28;20250;-76
2023/04/08 11:09:18;;;;;;;22.15;19.15;;;12.80;99.90;;;;;;5094047;28;20601;-76
2023/04/08 11:11:47;;;;;;;22.98;16.90;;;12.80;99.90;;;;;;5093774;28;20247;-76
2023/04/08 11:14:16;;;;;;;21.95;17.95;;;12.90;99.90;;;;;;5093696;28;20227;-77
2023/04/08 11:16:43;;;;;;;23.40;19.33;;;12.90;99.90;;;;;;5084000;28;20227;-76
2023/04/08 11:19:10;;;;;;;24.58;18.88;;;12.90;99.90;;;;;;5092813;28;20227;-76
2023/04/08 11:21:38;;;;;;;23.40;19.00;;;12.90;99.90;;;;;;5093056;28;20228;-78
2023/04/08 11:24:13;;;;;;;21.65;17.40;;;12.90;99.90;;;;;;5094017;28;20234;-77
2023/04/08 11:26:44;;;;;;;22.25;18.63;;;12.90;99.90;;;;;;5093604;28;20221;-76
2023/04/08 11:29:14;;;;;;;20.83;16.65;;;12.90;99.90;;;;;;5093006;28;20305;-76
2023/04/08 11:31:42;;;;;;;19.75;16.25;;;12.90;99.90;;;;;;5094368;28;20325;-77
2023/04/08 11:34:10;;;;;;;21.30;17.77;;;12.90;99.90;;;;;;5094784;28;20546;-78
2023/04/08 11:36:37;;;;;;;21.92;17.33;;;13.00;99.90;;;;;;5094116;28;22066;-77
2023/04/08 11:39:09;;;;;;;21.17;17.10;;;13.00;99.90;;;;;;5084764;28;20299;-77
2023/04/08 11:41:38;;;;;;;21.92;18.02;;;13.10;99.90;;;;;;5093029;28;20461;-77
2023/04/08 11:44:05;;;;;;;23.30;18.38;;;13.10;99.90;;;;;;5093713;28;20758;-77
2023/04/08 11:46:35;;;;;;;24.98;18.50;;;13.10;99.90;;;;;;5092927;28;20699;-77
2023/04/08 11:49:04;;;;;;;24.80;19.02;;;13.10;99.90;;;;;;5093356;28;20310;-78
2023/04/08 11:51:33;;;;;;;21.33;18.60;;;13.10;99.90;;;;;;5082295;28;20223;-77
2023/04/08 11:54:01;;;;;;;23.05;18.50;;;13.20;99.90;;;;;;5093391;28;20219;-77
2023/04/08 11:56:32;;;;;;;22.80;19.35;;;13.20;99.90;;;;;;5092750;28;20266;-77
2023/04/08 11:58:59;;;;;;;25.10;19.77;;;13.30;99.90;;;;;;5092944;28;20674;-77
2023/04/08 12:01:27;;;;;;;28.58;21.33;;;13.30;99.90;;;;;;5091851;28;20669;-79
2023/04/08 12:03:57;;;;;;;23.88;18.60;;;13.30;99.90;;;;;;5093045;28;20231;-78
2023/04/08 12:06:26;;;;;;;20.50;18.30;;;13.30;99.90;;;;;;5092945;28;20227;-77
2023/04/08 12:08:58;;;;;;;24.67;20.45;;;13.40;99.90;;;;;;5092262;28;20227;-78
2023/04/08 12:11:26;;;;;;;19.65;17.20;;;13.50;99.90;;;;;;5092255;28;20296;-78
2023/04/08 12:13:53;;;;;;;21.17;18.98;;;13.40;99.90;;;;;;5092011;28;20225;-78
2023/04/08 12:16:22;;;;;;;22.77;18.40;;;13.40;99.90;;;;;;5075238;28;20309;-78
2023/04/08 12:18:59;;;;;;;;;;;;;;;;;;;;;
2023/04/08 12:21:28;;;;;;;18.90;16.70;;;13.50;99.90;;;;;;5076216;28;20310;-75
2023/04/08 12:23:56;;;;;;;18.55;15.40;;;13.40;99.90;;;;;;5085006;28;20227;-75
2023/04/08 12:26:25;;;;;;;17.95;15.35;;;13.40;99.90;;;;;;5094591;28;20227;-76
2023/04/08 12:28:56;;;;;;;19.90;16.52;;;13.50;99.90;;;;;;5093634;28;20558;-76
2023/04/08 12:31:26;;;;;;;17.17;15.38;;;13.40;99.90;;;;;;5093924;28;20295;-76
2023/04/08 12:33:53;;;;;;;17.58;14.65;;;13.50;99.90;;;;;;5092790;28;20311;-76
2023/04/08 12:36:21;;;;;;;15.32;13.75;;;13.50;99.90;;;;;;5092718;28;20273;-77
2023/04/08 12:38:49;;;;;;;17.50;14.73;;;13.50;99.90;;;;;;5091664;28;20246;-77
2023/04/08 12:41:18;;;;;;;15.93;14.18;;;13.50;99.90;;;;;;5092440;28;20219;-77